sensor_id;sensor_type;location;lat;lon;timestamp;P1;durP1;ratioP1;P2;durP2;ratioP2
18526;SDS011;9393;42.158;24.748;2023-10-19T00:00:55;21.67;;;14.50;;
18526;SDS011;9393;42.158;24.748;2023-10-19T00:04:01;20.77;;;13.90;;
18526;SDS011;9393;42.158;24.748;2023-10-19T00:07:04;19.63;;;13.77;;
18526;SDS011;9393;42.158;24.748;2023-10-19T00:10:09;16.43;;;13.03;;
18526;SDS011;9393;42.158;24.748;2023-10-19T00:13:17;16.30;;;12.83;;
18526;SDS011;9393;42.158;24.748;2023-10-19T00:16:21;18.40;;;13.27;;
18526;SDS011;9393;42.158;24.748;2023-10-19T00:19:26;17.63;;;13.90;;
18526;SDS011;9393;42.158;24.748;2023-10-19T00:22:31;19.17;;;12.47;;
18526;SDS011;9393;42.158;24.748;2023-10-19T00:25:38;20.33;;;13.63;;
18526;SDS011;9393;42.158;24.748;2023-10-19T00:28:44;16.63;;;13.40;;
18526;SDS011;9393;42.158;24.748;2023-10-19T00:31:51;18.83;;;13.53;;
18526;SDS011;9393;42.158;24.748;2023-10-19T00:34:56;20.17;;;13.83;;
18526;SDS011;9393;42.158;24.748;2023-10-19T00:38:09;20.20;;;13.53;;
18526;SDS011;9393;42.158;24.748;2023-10-19T00:41:29;22.03;;;14.27;;
18526;SDS011;9393;42.158;24.748;2023-10-19T00:44:33;18.83;;;13.30;;
18526;SDS011;9393;42.158;24.748;2023-10-19T00:47:44;18.67;;;13.70;;
18526;SDS011;9393;42.158;24.748;2023-10-19T00:50:50;19.07;;;13.03;;
18526;SDS011;9393;42.158;24.748;2023-10-19T00:53:57;18.67;;;13.27;;
18526;SDS011;9393;42.158;24.748;2023-10-19T00:57:07;17.70;;;13.60;;
18526;SDS011;9393;42.158;24.748;2023-10-19T01:00:13;20.67;;;14.07;;
18526;SDS011;9393;42.158;24.748;2023-10-19T01:03:24;17.30;;;13.57;;
18526;SDS011;9393;42.158;24.748;2023-10-19T01:06:35;15.37;;;12.40;;
18526;SDS011;9393;42.158;24.748;2023-10-19T01:09:39;17.47;;;12.10;;
18526;SDS011;9393;42.158;24.748;2023-10-19T01:12:46;16.60;;;12.50;;
18526;SDS011;9393;42.158;24.748;2023-10-19T01:15:49;16.40;;;12.33;;
18526;SDS011;9393;42.158;24.748;2023-10-19T01:18:54;14.77;;;11.87;;
18526;SDS011;9393;42.158;24.748;2023-10-19T01:21:59;17.37;;;12.37;;
18526;SDS011;9393;42.158;24.748;2023-10-19T01:25:08;17.70;;;12.60;;
18526;SDS011;9393;42.158;24.748;2023-10-19T01:28:13;16.00;;;12.37;;
18526;SDS011;9393;42.158;24.748;2023-10-19T01:31:19;15.33;;;11.37;;
18526;SDS011;9393;42.158;24.748;2023-10-19T01:34:33;18.10;;;13.30;;
18526;SDS011;9393;42.158;24.748;2023-10-19T01:37:39;14.03;;;11.40;;
18526;SDS011;9393;42.158;24.748;2023-10-19T01:40:45;18.60;;;12.60;;
18526;SDS011;9393;42.158;24.748;2023-10-19T01:43:49;17.33;;;12.80;;
18526;SDS011;9393;42.158;24.748;2023-10-19T01:46:55;17.43;;;12.23;;
18526;SDS011;9393;42.158;24.748;2023-10-19T01:50:02;16.77;;;12.47;;
18526;SDS011;9393;42.158;24.748;2023-10-19T01:53:08;18.17;;;12.80;;
18526;SDS011;9393;42.158;24.748;2023-10-19T01:56:18;17.33;;;13.03;;
18526;SDS011;9393;42.158;24.748;2023-10-19T01:59:24;14.70;;;11.90;;
18526;SDS011;9393;42.158;24.748;2023-10-19T02:02:31;14.63;;;11.43;;
18526;SDS011;9393;42.158;24.748;2023-10-19T02:05:35;16.77;;;12.87;;
18526;SDS011;9393;42.158;24.748;2023-10-19T02:08:48;15.70;;;12.30;;
18526;SDS011;9393;42.158;24.748;2023-10-19T02:11:55;16.97;;;12.43;;
18526;SDS011;9393;42.158;24.748;2023-10-19T02:15:00;17.67;;;12.37;;
18526;SDS011;9393;42.158;24.748;2023-10-19T02:18:06;16.73;;;12.00;;
18526;SDS011;9393;42.158;24.748;2023-10-19T02:21:11;16.70;;;12.43;;
18526;SDS011;9393;42.158;24.748;2023-10-19T02:24:14;18.67;;;12.60;;
18526;SDS011;9393;42.158;24.748;2023-10-19T02:27:20;16.07;;;11.77;;
18526;SDS011;9393;42.158;24.748;2023-10-19T02:30:35;18.07;;;11.60;;
18526;SDS011;9393;42.158;24.748;2023-10-19T02:33:40;15.30;;;10.97;;
18526;SDS011;9393;42.158;24.748;2023-10-19T02:36:47;13.27;;;10.80;;
18526;SDS011;9393;42.158;24.748;2023-10-19T02:39:51;15.90;;;11.40;;
18526;SDS011;9393;42.158;24.748;2023-10-19T02:42:56;15.17;;;11.27;;
18526;SDS011;9393;42.158;24.748;2023-10-19T02:46:05;15.73;;;12.27;;
18526;SDS011;9393;42.158;24.748;2023-10-19T02:49:13;20.67;;;12.13;;
18526;SDS011;9393;42.158;24.748;2023-10-19T02:52:21;13.93;;;10.10;;
18526;SDS011;9393;42.158;24.748;2023-10-19T02:55:24;12.23;;;9.97;;
18526;SDS011;9393;42.158;24.748;2023-10-19T02:58:30;12.90;;;10.30;;
18526;SDS011;9393;42.158;24.748;2023-10-19T03:01:34;12.87;;;9.93;;
18526;SDS011;9393;42.158;24.748;2023-10-19T03:04:37;12.43;;;9.70;;
18526;SDS011;9393;42.158;24.748;2023-10-19T03:07:41;13.67;;;9.50;;
18526;SDS011;9393;42.158;24.748;2023-10-19T03:10:46;13.37;;;9.87;;
18526;SDS011;9393;42.158;24.748;2023-10-19T03:14:07;14.83;;;10.20;;
18526;SDS011;9393;42.158;24.748;2023-10-19T03:17:11;13.13;;;9.80;;
18526;SDS011;9393;42.158;24.748;2023-10-19T03:20:15;17.57;;;9.77;;
18526;SDS011;9393;42.158;24.748;2023-10-19T03:23:24;13.77;;;9.60;;
18526;SDS011;9393;42.158;24.748;2023-10-19T03:26:30;11.87;;;9.40;;
18526;SDS011;9393;42.158;24.748;2023-10-19T03:29:34;12.33;;;9.73;;
18526;SDS011;9393;42.158;24.748;2023-10-19T03:32:40;13.67;;;9.43;;
18526;SDS011;9393;42.158;24.748;2023-10-19T03:35:44;12.33;;;10.13;;
18526;SDS011;9393;42.158;24.748;2023-10-19T03:38:49;15.60;;;10.30;;
18526;SDS011;9393;42.158;24.748;2023-10-19T03:41:56;14.10;;;10.67;;
18526;SDS011;9393;42.158;24.748;2023-10-19T03:45:01;13.53;;;10.27;;
18526;SDS011;9393;42.158;24.748;2023-10-19T03:48:15;14.87;;;10.93;;
18526;SDS011;9393;42.158;24.748;2023-10-19T03:51:19;13.77;;;10.10;;
18526;SDS011;9393;42.158;24.748;2023-10-19T03:54:27;13.37;;;10.13;;
18526;SDS011;9393;42.158;24.748;2023-10-19T03:57:34;13.80;;;9.47;;
18526;SDS011;9393;42.158;24.748;2023-10-19T04:00:42;14.00;;;9.27;;
18526;SDS011;9393;42.158;24.748;2023-10-19T04:03:47;14.90;;;10.30;;
18526;SDS011;9393;42.158;24.748;2023-10-19T04:06:53;14.03;;;9.93;;
18526;SDS011;9393;42.158;24.748;2023-10-19T04:10:00;12.70;;;9.80;;
18526;SDS011;9393;42.158;24.748;2023-10-19T04:13:11;12.60;;;9.40;;
18526;SDS011;9393;42.158;24.748;2023-10-19T04:16:17;13.50;;;9.73;;
18526;SDS011;9393;42.158;24.748;2023-10-19T04:19:21;13.93;;;9.97;;
18526;SDS011;9393;42.158;24.748;2023-10-19T04:22:24;13.33;;;9.83;;
18526;SDS011;9393;42.158;24.748;2023-10-19T04:25:28;15.50;;;10.47;;
18526;SDS011;9393;42.158;24.748;2023-10-19T04:28:33;15.80;;;10.63;;
18526;SDS011;9393;42.158;24.748;2023-10-19T04:31:42;14.23;;;10.53;;
18526;SDS011;9393;42.158;24.748;2023-10-19T04:34:51;16.57;;;10.47;;
18526;SDS011;9393;42.158;24.748;2023-10-19T04:37:56;12.80;;;10.43;;
18526;SDS011;9393;42.158;24.748;2023-10-19T04:41:03;14.77;;;10.50;;
18526;SDS011;9393;42.158;24.748;2023-10-19T04:44:09;12.43;;;10.40;;
18526;SDS011;9393;42.158;24.748;2023-10-19T04:47:15;17.10;;;10.50;;
18526;SDS011;9393;42.158;24.748;2023-10-19T04:50:19;16.87;;;11.43;;
18526;SDS011;9393;42.158;24.748;2023-10-19T04:53:23;14.67;;;11.00;;
18526;SDS011;9393;42.158;24.748;2023-10-19T04:56:27;15.67;;;10.23;;
18526;SDS011;9393;42.158;24.748;2023-10-19T04:59:31;16.57;;;9.97;;
18526;SDS011;9393;42.158;24.748;2023-10-19T05:02:37;12.93;;;9.40;;
18526;SDS011;9393;42.158;24.748;2023-10-19T05:05:41;15.03;;;10.20;;
18526;SDS011;9393;42.158;24.748;2023-10-19T05:08:45;13.90;;;9.80;;
18526;SDS011;9393;42.158;24.748;2023-10-19T05:11:49;14.00;;;9.67;;
18526;SDS011;9393;42.158;24.748;2023-10-19T05:14:55;15.70;;;9.70;;
18526;SDS011;9393;42.158;24.748;2023-10-19T05:18:00;12.07;;;10.30;;
18526;SDS011;9393;42.158;24.748;2023-10-19T05:21:06;15.57;;;9.73;;
18526;SDS011;9393;42.158;24.748;2023-10-19T05:24:12;16.10;;;10.47;;
18526;SDS011;9393;42.158;24.748;2023-10-19T05:27:16;17.87;;;11.33;;
18526;SDS011;9393;42.158;24.748;2023-10-19T05:30:20;17.30;;;11.53;;
18526;SDS011;9393;42.158;24.748;2023-10-19T05:33:26;15.73;;;10.80;;
18526;SDS011;9393;42.158;24.748;2023-10-19T05:36:32;14.43;;;10.87;;
18526;SDS011;9393;42.158;24.748;2023-10-19T05:39:35;18.47;;;10.63;;
18526;SDS011;9393;42.158;24.748;2023-10-19T05:42:39;16.00;;;11.37;;
18526;SDS011;9393;42.158;24.748;2023-10-19T05:45:43;13.73;;;10.30;;
18526;SDS011;9393;42.158;24.748;2023-10-19T05:48:53;17.30;;;10.47;;
18526;SDS011;9393;42.158;24.748;2023-10-19T05:51:58;21.63;;;11.47;;
18526;SDS011;9393;42.158;24.748;2023-10-19T05:55:02;14.93;;;10.73;;
18526;SDS011;9393;42.158;24.748;2023-10-19T05:58:07;20.73;;;11.53;;
18526;SDS011;9393;42.158;24.748;2023-10-19T06:01:11;17.60;;;11.40;;
18526;SDS011;9393;42.158;24.748;2023-10-19T06:04:16;18.10;;;11.50;;
18526;SDS011;9393;42.158;24.748;2023-10-19T06:07:32;24.53;;;10.03;;
18526;SDS011;9393;42.158;24.748;2023-10-19T06:10:36;17.63;;;11.00;;
18526;SDS011;9393;42.158;24.748;2023-10-19T06:13:41;26.97;;;12.03;;
18526;SDS011;9393;42.158;24.748;2023-10-19T06:16:45;22.17;;;11.63;;
18526;SDS011;9393;42.158;24.748;2023-10-19T06:19:51;21.93;;;9.97;;
18526;SDS011;9393;42.158;24.748;2023-10-19T06:22:55;23.23;;;10.80;;
18526;SDS011;9393;42.158;24.748;2023-10-19T06:26:09;15.43;;;11.13;;
18526;SDS011;9393;42.158;24.748;2023-10-19T06:29:14;19.03;;;13.53;;
18526;SDS011;9393;42.158;24.748;2023-10-19T06:32:18;18.17;;;12.33;;
18526;SDS011;9393;42.158;24.748;2023-10-19T06:35:23;14.20;;;10.33;;
18526;SDS011;9393;42.158;24.748;2023-10-19T06:38:27;14.20;;;10.80;;
18526;SDS011;9393;42.158;24.748;2023-10-19T06:41:33;19.13;;;11.53;;
18526;SDS011;9393;42.158;24.748;2023-10-19T06:44:37;18.27;;;12.40;;
18526;SDS011;9393;42.158;24.748;2023-10-19T06:47:41;15.20;;;10.90;;
18526;SDS011;9393;42.158;24.748;2023-10-19T06:50:48;13.13;;;9.43;;
18526;SDS011;9393;42.158;24.748;2023-10-19T06:53:53;11.73;;;8.80;;
18526;SDS011;9393;42.158;24.748;2023-10-19T06:56:57;12.17;;;8.63;;
18526;SDS011;9393;42.158;24.748;2023-10-19T07:00:05;14.03;;;9.83;;
18526;SDS011;9393;42.158;24.748;2023-10-19T07:03:16;10.67;;;8.97;;
18526;SDS011;9393;42.158;24.748;2023-10-19T07:06:21;15.80;;;10.07;;
18526;SDS011;9393;42.158;24.748;2023-10-19T07:09:25;14.27;;;10.00;;
18526;SDS011;9393;42.158;24.748;2023-10-19T07:12:29;18.80;;;11.30;;
18526;SDS011;9393;42.158;24.748;2023-10-19T07:15:34;16.03;;;11.13;;
18526;SDS011;9393;42.158;24.748;2023-10-19T07:18:38;14.37;;;10.63;;
18526;SDS011;9393;42.158;24.748;2023-10-19T07:21:44;16.60;;;10.33;;
18526;SDS011;9393;42.158;24.748;2023-10-19T07:24:50;12.90;;;9.73;;
18526;SDS011;9393;42.158;24.748;2023-10-19T07:27:54;12.63;;;9.33;;
18526;SDS011;9393;42.158;24.748;2023-10-19T07:31:02;14.27;;;9.83;;
18526;SDS011;9393;42.158;24.748;2023-10-19T07:34:06;13.77;;;9.40;;
18526;SDS011;9393;42.158;24.748;2023-10-19T07:37:12;18.60;;;11.10;;
18526;SDS011;9393;42.158;24.748;2023-10-19T07:40:17;15.57;;;9.87;;
18526;SDS011;9393;42.158;24.748;2023-10-19T07:43:21;16.20;;;12.47;;
18526;SDS011;9393;42.158;24.748;2023-10-19T07:46:27;16.23;;;11.47;;
18526;SDS011;9393;42.158;24.748;2023-10-19T07:49:33;18.50;;;11.47;;
18526;SDS011;9393;42.158;24.748;2023-10-19T07:52:42;16.17;;;11.80;;
18526;SDS011;9393;42.158;24.748;2023-10-19T07:55:46;18.50;;;11.40;;
18526;SDS011;9393;42.158;24.748;2023-10-19T07:58:50;18.60;;;12.83;;
18526;SDS011;9393;42.158;24.748;2023-10-19T08:01:54;15.30;;;12.17;;
18526;SDS011;9393;42.158;24.748;2023-10-19T08:04:58;20.30;;;12.20;;
18526;SDS011;9393;42.158;24.748;2023-10-19T08:08:05;18.17;;;12.00;;
18526;SDS011;9393;42.158;24.748;2023-10-19T08:11:09;14.60;;;11.87;;
18526;SDS011;9393;42.158;24.748;2023-10-19T08:14:14;15.70;;;11.50;;
18526;SDS011;9393;42.158;24.748;2023-10-19T08:17:18;18.70;;;12.03;;
18526;SDS011;9393;42.158;24.748;2023-10-19T08:20:22;17.93;;;11.83;;
18526;SDS011;9393;42.158;24.748;2023-10-19T08:23:29;16.30;;;12.37;;
18526;SDS011;9393;42.158;24.748;2023-10-19T08:26:33;21.53;;;13.20;;
18526;SDS011;9393;42.158;24.748;2023-10-19T08:29:38;18.97;;;13.43;;
18526;SDS011;9393;42.158;24.748;2023-10-19T08:32:42;18.20;;;13.43;;
18526;SDS011;9393;42.158;24.748;2023-10-19T08:35:50;15.27;;;13.57;;
18526;SDS011;9393;42.158;24.748;2023-10-19T08:38:55;18.17;;;13.18;;
18526;SDS011;9393;42.158;24.748;2023-10-19T08:41:59;23.35;;;13.95;;
18526;SDS011;9393;42.158;24.748;2023-10-19T08:45:04;23.77;;;14.77;;
18526;SDS011;9393;42.158;24.748;2023-10-19T08:48:10;21.77;;;14.80;;
18526;SDS011;9393;42.158;24.748;2023-10-19T08:51:14;21.63;;;14.73;;
18526;SDS011;9393;42.158;24.748;2023-10-19T08:54:20;19.73;;;15.02;;
18526;SDS011;9393;42.158;24.748;2023-10-19T08:57:24;18.52;;;13.60;;
18526;SDS011;9393;42.158;24.748;2023-10-19T09:00:42;19.58;;;14.77;;
18526;SDS011;9393;42.158;24.748;2023-10-19T09:03:50;21.80;;;12.55;;
18526;SDS011;9393;42.158;24.748;2023-10-19T09:06:54;16.55;;;13.10;;
18526;SDS011;9393;42.158;24.748;2023-10-19T09:10:00;16.83;;;12.98;;
18526;SDS011;9393;42.158;24.748;2023-10-19T09:13:07;16.42;;;12.32;;
18526;SDS011;9393;42.158;24.748;2023-10-19T09:16:12;15.53;;;12.10;;
18526;SDS011;9393;42.158;24.748;2023-10-19T09:19:16;14.23;;;11.50;;
18526;SDS011;9393;42.158;24.748;2023-10-19T09:22:20;13.05;;;11.23;;
18526;SDS011;9393;42.158;24.748;2023-10-19T09:25:27;17.27;;;11.18;;
18526;SDS011;9393;42.158;24.748;2023-10-19T09:28:31;15.95;;;11.70;;
18526;SDS011;9393;42.158;24.748;2023-10-19T09:31:38;17.90;;;12.15;;
18526;SDS011;9393;42.158;24.748;2023-10-19T09:34:44;13.75;;;11.43;;
18526;SDS011;9393;42.158;24.748;2023-10-19T09:37:49;15.38;;;11.52;;
18526;SDS011;9393;42.158;24.748;2023-10-19T09:40:57;14.88;;;11.13;;
18526;SDS011;9393;42.158;24.748;2023-10-19T09:44:03;13.35;;;10.27;;
18526;SDS011;9393;42.158;24.748;2023-10-19T09:47:16;15.32;;;11.50;;
18526;SDS011;9393;42.158;24.748;2023-10-19T09:50:30;14.15;;;11.75;;
18526;SDS011;9393;42.158;24.748;2023-10-19T09:53:34;15.02;;;10.35;;
18526;SDS011;9393;42.158;24.748;2023-10-19T09:56:43;14.13;;;11.80;;
18526;SDS011;9393;42.158;24.748;2023-10-19T09:59:56;15.68;;;11.48;;
18526;SDS011;9393;42.158;24.748;2023-10-19T10:06:57;9.63;;;8.15;;
18526;SDS011;9393;42.158;24.748;2023-10-19T10:10:03;11.23;;;9.23;;
18526;SDS011;9393;42.158;24.748;2023-10-19T10:16:44;14.60;;;10.40;;
18526;SDS011;9393;42.158;24.748;2023-10-19T10:19:48;11.75;;;9.70;;
18526;SDS011;9393;42.158;24.748;2023-10-19T10:26:20;10.57;;;9.47;;
18526;SDS011;9393;42.158;24.748;2023-10-19T10:29:28;11.17;;;9.13;;
18526;SDS011;9393;42.158;24.748;2023-10-19T10:32:42;12.80;;;9.13;;
18526;SDS011;9393;42.158;24.748;2023-10-19T10:35:53;14.20;;;9.13;;
18526;SDS011;9393;42.158;24.748;2023-10-19T10:39:01;11.82;;;9.70;;
18526;SDS011;9393;42.158;24.748;2023-10-19T10:42:09;11.10;;;9.43;;
18526;SDS011;9393;42.158;24.748;2023-10-19T10:45:20;10.93;;;9.23;;
18526;SDS011;9393;42.158;24.748;2023-10-19T10:48:24;12.18;;;8.85;;
18526;SDS011;9393;42.158;24.748;2023-10-19T10:51:28;12.52;;;10.38;;
18526;SDS011;9393;42.158;24.748;2023-10-19T10:54:32;11.50;;;9.43;;
18526;SDS011;9393;42.158;24.748;2023-10-19T10:57:36;12.90;;;9.63;;
18526;SDS011;9393;42.158;24.748;2023-10-19T11:00:43;12.18;;;7.80;;
18526;SDS011;9393;42.158;24.748;2023-10-19T11:03:49;8.95;;;6.60;;
18526;SDS011;9393;42.158;24.748;2023-10-19T11:06:54;9.60;;;8.07;;
18526;SDS011;9393;42.158;24.748;2023-10-19T11:09:58;10.55;;;7.95;;
18526;SDS011;9393;42.158;24.748;2023-10-19T11:13:03;10.10;;;9.10;;
18526;SDS011;9393;42.158;24.748;2023-10-19T11:16:10;15.80;;;8.50;;
18526;SDS011;9393;42.158;24.748;2023-10-19T11:19:14;8.75;;;7.70;;
18526;SDS011;9393;42.158;24.748;2023-10-19T11:22:18;11.38;;;8.80;;
18526;SDS011;9393;42.158;24.748;2023-10-19T11:25:24;12.98;;;8.57;;
18526;SDS011;9393;42.158;24.748;2023-10-19T11:28:30;12.32;;;8.43;;
18526;SDS011;9393;42.158;24.748;2023-10-19T11:31:36;11.25;;;9.35;;
18526;SDS011;9393;42.158;24.748;2023-10-19T11:34:41;12.05;;;9.50;;
18526;SDS011;9393;42.158;24.748;2023-10-19T11:37:47;14.63;;;9.45;;
18526;SDS011;9393;42.158;24.748;2023-10-19T11:40:52;13.95;;;9.15;;
18526;SDS011;9393;42.158;24.748;2023-10-19T11:43:55;13.77;;;8.15;;
18526;SDS011;9393;42.158;24.748;2023-10-19T11:47:01;11.73;;;9.40;;
18526;SDS011;9393;42.158;24.748;2023-10-19T11:50:05;12.02;;;7.90;;
18526;SDS011;9393;42.158;24.748;2023-10-19T11:53:10;12.25;;;9.18;;
18526;SDS011;9393;42.158;24.748;2023-10-19T11:56:14;11.45;;;9.75;;
18526;SDS011;9393;42.158;24.748;2023-10-19T11:59:18;13.18;;;10.27;;
18526;SDS011;9393;42.158;24.748;2023-10-19T12:02:24;14.45;;;10.43;;
18526;SDS011;9393;42.158;24.748;2023-10-19T12:05:29;15.27;;;10.80;;
18526;SDS011;9393;42.158;24.748;2023-10-19T12:08:33;16.90;;;11.98;;
18526;SDS011;9393;42.158;24.748;2023-10-19T12:11:39;15.07;;;10.90;;
18526;SDS011;9393;42.158;24.748;2023-10-19T12:14:43;15.23;;;9.80;;
18526;SDS011;9393;42.158;24.748;2023-10-19T12:17:48;20.08;;;10.32;;
18526;SDS011;9393;42.158;24.748;2023-10-19T12:20:53;12.18;;;9.80;;
18526;SDS011;9393;42.158;24.748;2023-10-19T12:23:58;17.52;;;9.68;;
18526;SDS011;9393;42.158;24.748;2023-10-19T12:27:03;14.10;;;9.07;;
18526;SDS011;9393;42.158;24.748;2023-10-19T12:30:08;9.40;;;8.13;;
18526;SDS011;9393;42.158;24.748;2023-10-19T12:33:23;12.88;;;9.23;;
18526;SDS011;9393;42.158;24.748;2023-10-19T12:36:28;12.00;;;9.13;;
18526;SDS011;9393;42.158;24.748;2023-10-19T12:39:34;11.10;;;9.20;;
18526;SDS011;9393;42.158;24.748;2023-10-19T12:42:43;12.15;;;9.23;;
18526;SDS011;9393;42.158;24.748;2023-10-19T12:45:47;13.02;;;9.20;;
18526;SDS011;9393;42.158;24.748;2023-10-19T12:48:57;15.63;;;9.57;;
18526;SDS011;9393;42.158;24.748;2023-10-19T12:52:01;13.18;;;8.88;;
18526;SDS011;9393;42.158;24.748;2023-10-19T12:55:06;10.95;;;8.55;;
18526;SDS011;9393;42.158;24.748;2023-10-19T12:58:11;11.77;;;8.40;;
18526;SDS011;9393;42.158;24.748;2023-10-19T13:01:17;11.30;;;8.23;;
18526;SDS011;9393;42.158;24.748;2023-10-19T13:04:23;13.68;;;7.90;;
18526;SDS011;9393;42.158;24.748;2023-10-19T13:07:27;14.88;;;8.00;;
18526;SDS011;9393;42.158;24.748;2023-10-19T13:10:31;11.88;;;7.80;;
18526;SDS011;9393;42.158;24.748;2023-10-19T13:13:36;10.32;;;7.55;;
18526;SDS011;9393;42.158;24.748;2023-10-19T13:16:41;10.05;;;7.43;;
18526;SDS011;9393;42.158;24.748;2023-10-19T13:19:46;9.25;;;7.15;;
18526;SDS011;9393;42.158;24.748;2023-10-19T13:22:53;7.22;;;6.45;;
18526;SDS011;9393;42.158;24.748;2023-10-19T13:25:59;9.02;;;6.38;;
18526;SDS011;9393;42.158;24.748;2023-10-19T13:29:19;11.23;;;6.28;;
18526;SDS011;9393;42.158;24.748;2023-10-19T13:32:28;9.05;;;6.60;;
18526;SDS011;9393;42.158;24.748;2023-10-19T13:35:34;8.25;;;6.95;;
18526;SDS011;9393;42.158;24.748;2023-10-19T13:38:39;9.25;;;7.57;;
18526;SDS011;9393;42.158;24.748;2023-10-19T13:41:43;11.10;;;7.68;;
18526;SDS011;9393;42.158;24.748;2023-10-19T13:44:47;9.77;;;7.25;;
18526;SDS011;9393;42.158;24.748;2023-10-19T13:47:51;12.10;;;8.77;;
18526;SDS011;9393;42.158;24.748;2023-10-19T13:50:58;8.57;;;7.55;;
18526;SDS011;9393;42.158;24.748;2023-10-19T13:54:07;9.90;;;7.38;;
18526;SDS011;9393;42.158;24.748;2023-10-19T13:57:11;10.70;;;8.10;;
18526;SDS011;9393;42.158;24.748;2023-10-19T14:00:16;11.68;;;8.68;;
18526;SDS011;9393;42.158;24.748;2023-10-19T14:03:27;11.15;;;8.05;;
18526;SDS011;9393;42.158;24.748;2023-10-19T14:06:34;15.55;;;9.38;;
18526;SDS011;9393;42.158;24.748;2023-10-19T14:09:39;10.05;;;8.18;;
18526;SDS011;9393;42.158;24.748;2023-10-19T14:12:43;12.27;;;8.85;;
18526;SDS011;9393;42.158;24.748;2023-10-19T14:15:47;12.45;;;8.77;;
18526;SDS011;9393;42.158;24.748;2023-10-19T14:18:51;10.73;;;8.40;;
18526;SDS011;9393;42.158;24.748;2023-10-19T14:21:57;11.63;;;8.88;;
18526;SDS011;9393;42.158;24.748;2023-10-19T14:25:01;12.27;;;8.75;;
18526;SDS011;9393;42.158;24.748;2023-10-19T14:28:05;10.52;;;9.15;;
18526;SDS011;9393;42.158;24.748;2023-10-19T14:31:09;11.35;;;8.77;;
18526;SDS011;9393;42.158;24.748;2023-10-19T14:34:14;12.07;;;9.57;;
18526;SDS011;9393;42.158;24.748;2023-10-19T14:37:21;11.93;;;8.75;;
18526;SDS011;9393;42.158;24.748;2023-10-19T14:40:25;11.35;;;8.15;;
18526;SDS011;9393;42.158;24.748;2023-10-19T14:43:31;12.50;;;8.13;;
18526;SDS011;9393;42.158;24.748;2023-10-19T14:46:35;10.55;;;8.15;;
18526;SDS011;9393;42.158;24.748;2023-10-19T14:49:39;11.02;;;8.73;;
18526;SDS011;9393;42.158;24.748;2023-10-19T14:52:46;12.90;;;9.43;;
18526;SDS011;9393;42.158;24.748;2023-10-19T14:55:51;13.13;;;8.43;;
18526;SDS011;9393;42.158;24.748;2023-10-19T14:58:55;13.38;;;9.15;;
18526;SDS011;9393;42.158;24.748;2023-10-19T15:02:01;10.47;;;8.23;;
18526;SDS011;9393;42.158;24.748;2023-10-19T15:05:09;17.20;;;9.60;;
18526;SDS011;9393;42.158;24.748;2023-10-19T15:08:19;15.35;;;8.88;;
18526;SDS011;9393;42.158;24.748;2023-10-19T15:11:26;15.80;;;9.05;;
18526;SDS011;9393;42.158;24.748;2023-10-19T15:14:30;14.93;;;8.77;;
18526;SDS011;9393;42.158;24.748;2023-10-19T15:17:34;17.60;;;9.40;;
18526;SDS011;9393;42.158;24.748;2023-10-19T15:20:40;16.03;;;9.50;;
18526;SDS011;9393;42.158;24.748;2023-10-19T15:23:45;16.97;;;9.50;;
18526;SDS011;9393;42.158;24.748;2023-10-19T15:26:52;20.90;;;13.57;;
18526;SDS011;9393;42.158;24.748;2023-10-19T15:29:55;16.63;;;9.67;;
18526;SDS011;9393;42.158;24.748;2023-10-19T15:32:59;14.55;;;10.15;;
18526;SDS011;9393;42.158;24.748;2023-10-19T15:36:04;18.07;;;9.77;;
18526;SDS011;9393;42.158;24.748;2023-10-19T15:39:10;34.40;;;10.33;;
18526;SDS011;9393;42.158;24.748;2023-10-19T15:42:14;12.50;;;9.00;;
18526;SDS011;9393;42.158;24.748;2023-10-19T15:45:20;15.07;;;9.80;;
18526;SDS011;9393;42.158;24.748;2023-10-19T15:48:24;17.57;;;9.60;;
18526;SDS011;9393;42.158;24.748;2023-10-19T15:51:28;14.57;;;9.90;;
18526;SDS011;9393;42.158;24.748;2023-10-19T15:54:34;17.83;;;10.23;;
18526;SDS011;9393;42.158;24.748;2023-10-19T15:57:39;24.30;;;11.73;;
18526;SDS011;9393;42.158;24.748;2023-10-19T16:00:44;18.83;;;11.17;;
18526;SDS011;9393;42.158;24.748;2023-10-19T16:03:49;17.83;;;9.87;;
18526;SDS011;9393;42.158;24.748;2023-10-19T16:06:53;23.87;;;11.13;;
18526;SDS011;9393;42.158;24.748;2023-10-19T16:09:58;17.30;;;10.57;;
18526;SDS011;9393;42.158;24.748;2023-10-19T16:13:02;12.27;;;9.87;;
18526;SDS011;9393;42.158;24.748;2023-10-19T16:16:06;20.00;;;11.20;;
18526;SDS011;9393;42.158;24.748;2023-10-19T16:19:12;16.13;;;10.40;;
18526;SDS011;9393;42.158;24.748;2023-10-19T16:22:16;22.97;;;11.67;;
18526;SDS011;9393;42.158;24.748;2023-10-19T16:25:21;23.03;;;13.10;;
18526;SDS011;9393;42.158;24.748;2023-10-19T16:28:25;20.27;;;11.40;;
18526;SDS011;9393;42.158;24.748;2023-10-19T16:31:29;19.63;;;12.50;;
18526;SDS011;9393;42.158;24.748;2023-10-19T16:34:34;25.13;;;15.37;;
18526;SDS011;9393;42.158;24.748;2023-10-19T16:37:38;24.67;;;14.63;;
18526;SDS011;9393;42.158;24.748;2023-10-19T16:40:44;26.00;;;13.73;;
18526;SDS011;9393;42.158;24.748;2023-10-19T16:43:48;32.93;;;15.77;;
18526;SDS011;9393;42.158;24.748;2023-10-19T16:46:52;31.73;;;18.23;;
18526;SDS011;9393;42.158;24.748;2023-10-19T16:49:56;45.10;;;24.20;;
18526;SDS011;9393;42.158;24.748;2023-10-19T16:53:00;30.20;;;18.80;;
18526;SDS011;9393;42.158;24.748;2023-10-19T16:56:05;33.67;;;16.97;;
18526;SDS011;9393;42.158;24.748;2023-10-19T16:59:09;37.60;;;19.30;;
18526;SDS011;9393;42.158;24.748;2023-10-19T17:02:14;30.87;;;17.10;;
18526;SDS011;9393;42.158;24.748;2023-10-19T17:05:18;26.30;;;16.67;;
18526;SDS011;9393;42.158;24.748;2023-10-19T17:08:21;31.47;;;18.27;;
18526;SDS011;9393;42.158;24.748;2023-10-19T17:11:27;35.63;;;17.23;;
18526;SDS011;9393;42.158;24.748;2023-10-19T17:14:32;26.93;;;15.00;;
18526;SDS011;9393;42.158;24.748;2023-10-19T17:17:36;22.83;;;14.37;;
18526;SDS011;9393;42.158;24.748;2023-10-19T17:20:40;21.43;;;13.23;;
18526;SDS011;9393;42.158;24.748;2023-10-19T17:23:44;24.63;;;15.07;;
18526;SDS011;9393;42.158;24.748;2023-10-19T17:26:49;25.23;;;15.60;;
18526;SDS011;9393;42.158;24.748;2023-10-19T17:29:53;28.43;;;14.77;;
18526;SDS011;9393;42.158;24.748;2023-10-19T17:32:57;22.90;;;14.43;;
18526;SDS011;9393;42.158;24.748;2023-10-19T17:36:12;24.07;;;13.90;;
18526;SDS011;9393;42.158;24.748;2023-10-19T17:39:16;24.67;;;13.47;;
18526;SDS011;9393;42.158;24.748;2023-10-19T17:42:21;22.40;;;14.70;;
18526;SDS011;9393;42.158;24.748;2023-10-19T17:45:25;21.87;;;14.43;;
18526;SDS011;9393;42.158;24.748;2023-10-19T17:48:29;27.33;;;14.37;;
18526;SDS011;9393;42.158;24.748;2023-10-19T17:51:34;25.83;;;15.03;;
18526;SDS011;9393;42.158;24.748;2023-10-19T17:54:38;28.87;;;15.10;;
18526;SDS011;9393;42.158;24.748;2023-10-19T17:57:43;25.33;;;15.07;;
18526;SDS011;9393;42.158;24.748;2023-10-19T18:00:51;23.07;;;14.87;;
18526;SDS011;9393;42.158;24.748;2023-10-19T18:03:55;29.07;;;15.27;;
18526;SDS011;9393;42.158;24.748;2023-10-19T18:06:59;25.67;;;15.57;;
18526;SDS011;9393;42.158;24.748;2023-10-19T18:10:03;22.40;;;14.43;;
18526;SDS011;9393;42.158;24.748;2023-10-19T18:13:09;19.07;;;13.33;;
18526;SDS011;9393;42.158;24.748;2023-10-19T18:16:13;21.20;;;14.93;;
18526;SDS011;9393;42.158;24.748;2023-10-19T18:19:17;23.97;;;14.40;;
18526;SDS011;9393;42.158;24.748;2023-10-19T18:22:24;21.17;;;14.27;;